sensor_id;sensor_type;location;lat;lon;timestamp;pressure;altitude;pressure_sealevel;temperature;humidity
30708;BME280;17458;48.958;8.284;2022-12-18T00:02:23;101629.75;;;-4.55;67.18
30708;BME280;17458;48.958;8.284;2022-12-18T00:05:07;101627.56;;;-4.52;66.96
30708;BME280;17458;48.958;8.284;2022-12-18T00:07:51;101632.22;;;-4.49;67.03
30708;BME280;17458;48.958;8.284;2022-12-18T00:10:38;101637.53;;;-4.75;68.22
30708;BME280;17458;48.958;8.284;2022-12-18T00:13:22;101630.03;;;-4.66;67.32
30708;BME280;17458;48.958;8.284;2022-12-18T00:16:09;101628.72;;;-4.43;66.74
30708;BME280;17458;48.958;8.284;2022-12-18T00:18:54;101625.19;;;-4.70;67.59
30708;BME280;17458;48.958;8.284;2022-12-18T00:21:42;101622.59;;;-4.50;67.22
30708;BME280;17458;48.958;8.284;2022-12-18T00:24:27;101625.50;;;-4.54;66.56
30708;BME280;17458;48.958;8.284;2022-12-18T00:27:11;101629.53;;;-4.37;66.55
30708;BME280;17458;48.958;8.284;2022-12-18T00:29:55;101635.16;;;-4.26;66.03
30708;BME280;17458;48.958;8.284;2022-12-18T00:32:39;101634.97;;;-4.21;65.66
30708;BME280;17458;48.958;8.284;2022-12-18T00:35:23;101635.34;;;-4.52;64.01
30708;BME280;17458;48.958;8.284;2022-12-18T00:38:07;101637.97;;;-4.91;62.18
30708;BME280;17458;48.958;8.284;2022-12-18T00:40:51;101642.91;;;-5.13;61.95
30708;BME280;17458;48.958;8.284;2022-12-18T00:43:36;101649.34;;;-5.16;61.80
30708;BME280;17458;48.958;8.284;2022-12-18T00:46:20;101647.69;;;-5.16;62.45
30708;BME280;17458;48.958;8.284;2022-12-18T00:49:06;101629.34;;;-5.17;62.89
30708;BME280;17458;48.958;8.284;2022-12-18T00:51:50;101627.63;;;-5.24;63.06
30708;BME280;17458;48.958;8.284;2022-12-18T00:54:34;101635.44;;;-5.37;63.72
30708;BME280;17458;48.958;8.284;2022-12-18T00:57:18;101639.25;;;-5.27;63.63
30708;BME280;17458;48.958;8.284;2022-12-18T01:00:05;101641.72;;;-5.22;63.21
30708;BME280;17458;48.958;8.284;2022-12-18T01:02:50;101637.38;;;-5.28;62.66
30708;BME280;17458;48.958;8.284;2022-12-18T01:05:33;101641.16;;;-5.39;62.85
30708;BME280;17458;48.958;8.284;2022-12-18T01:08:17;101645.66;;;-5.31;62.81
30708;BME280;17458;48.958;8.284;2022-12-18T01:11:13;101629.91;;;-5.20;63.04
30708;BME280;17458;48.958;8.284;2022-12-18T01:14:02;101639.66;;;-5.24;62.80
30708;BME280;17458;48.958;8.284;2022-12-18T01:16:45;101635.59;;;-5.22;62.79
30708;BME280;17458;48.958;8.284;2022-12-18T01:19:29;101630.44;;;-5.22;63.10
30708;BME280;17458;48.958;8.284;2022-12-18T01:22:14;101627.22;;;-5.27;63.59
30708;BME280;17458;48.958;8.284;2022-12-18T01:24:58;101632.66;;;-5.18;62.97
30708;BME280;17458;48.958;8.284;2022-12-18T01:27:42;101613.28;;;-5.34;62.63
30708;BME280;17458;48.958;8.284;2022-12-18T01:30:27;101618.22;;;-5.23;62.33
30708;BME280;17458;48.958;8.284;2022-12-18T01:33:11;101632.94;;;-5.29;62.60
30708;BME280;17458;48.958;8.284;2022-12-18T01:35:55;101641.50;;;-5.04;62.45
30708;BME280;17458;48.958;8.284;2022-12-18T01:38:39;101649.75;;;-5.13;62.32
30708;BME280;17458;48.958;8.284;2022-12-18T01:41:25;101648.91;;;-5.07;62.53
30708;BME280;17458;48.958;8.284;2022-12-18T01:50:34;101643.59;;;-5.01;62.06
30708;BME280;17458;48.958;8.284;2022-12-18T01:53:22;101633.94;;;-5.02;62.42
30708;BME280;17458;48.958;8.284;2022-12-18T01:56:08;101633.69;;;-5.11;62.05
30708;BME280;17458;48.958;8.284;2022-12-18T01:59:02;101644.41;;;-5.27;62.03
30708;BME280;17458;48.958;8.284;2022-12-18T02:01:48;101649.81;;;-5.26;62.02
30708;BME280;17458;48.958;8.284;2022-12-18T02:04:33;101643.06;;;-5.31;62.39
30708;BME280;17458;48.958;8.284;2022-12-18T02:07:49;101649.06;;;-5.25;62.56
30708;BME280;17458;48.958;8.284;2022-12-18T02:11:00;101647.63;;;-5.03;61.90
30708;BME280;17458;48.958;8.284;2022-12-18T02:16:44;101653.53;;;-5.24;62.11
30708;BME280;17458;48.958;8.284;2022-12-18T02:19:58;101664.69;;;-5.18;61.60
30708;BME280;17458;48.958;8.284;2022-12-18T02:23:09;101648.22;;;-5.18;61.48
30708;BME280;17458;48.958;8.284;2022-12-18T02:29:05;101657.63;;;-5.19;60.73
30708;BME280;17458;48.958;8.284;2022-12-18T02:31:56;101653.44;;;-5.31;60.91
30708;BME280;17458;48.958;8.284;2022-12-18T02:34:45;101652.97;;;-5.41;61.49
30708;BME280;17458;48.958;8.284;2022-12-18T02:37:34;101647.25;;;-5.39;61.55
30708;BME280;17458;48.958;8.284;2022-12-18T02:40:24;101651.50;;;-5.39;61.56
30708;BME280;17458;48.958;8.284;2022-12-18T02:43:12;101650.25;;;-5.36;61.08
30708;BME280;17458;48.958;8.284;2022-12-18T02:45:59;101648.53;;;-5.55;61.56
30708;BME280;17458;48.958;8.284;2022-12-18T02:48:46;101645.13;;;-5.61;61.83
30708;BME280;17458;48.958;8.284;2022-12-18T02:52:11;101639.41;;;-5.46;62.10
30708;BME280;17458;48.958;8.284;2022-12-18T02:58:22;101658.66;;;-5.44;62.08
30708;BME280;17458;48.958;8.284;2022-12-18T03:01:31;101671.19;;;-5.34;61.86
30708;BME280;17458;48.958;8.284;2022-12-18T03:04:20;101671.03;;;-5.28;62.21
30708;BME280;17458;48.958;8.284;2022-12-18T03:07:12;101661.00;;;-5.32;62.49
30708;BME280;17458;48.958;8.284;2022-12-18T03:10:00;101662.59;;;-5.40;61.69
30708;BME280;17458;48.958;8.284;2022-12-18T03:12:51;101663.59;;;-5.32;61.20
30708;BME280;17458;48.958;8.284;2022-12-18T03:15:46;101656.59;;;-5.46;61.17
30708;BME280;17458;48.958;8.284;2022-12-18T03:18:40;101668.66;;;-5.72;60.56
30708;BME280;17458;48.958;8.284;2022-12-18T03:21:29;101669.69;;;-5.64;60.96
30708;BME280;17458;48.958;8.284;2022-12-18T03:24:17;101667.63;;;-5.67;60.83
30708;BME280;17458;48.958;8.284;2022-12-18T03:27:06;101672.69;;;-5.74;61.22
30708;BME280;17458;48.958;8.284;2022-12-18T03:30:07;101672.56;;;-5.56;60.81
30708;BME280;17458;48.958;8.284;2022-12-18T03:33:07;101671.00;;;-5.61;60.99
30708;BME280;17458;48.958;8.284;2022-12-18T03:35:54;101660.66;;;-5.74;60.88
30708;BME280;17458;48.958;8.284;2022-12-18T03:38:38;101661.22;;;-5.76;60.64
30708;BME280;17458;48.958;8.284;2022-12-18T03:41:29;101657.88;;;-5.75;60.88
30708;BME280;17458;48.958;8.284;2022-12-18T03:44:54;101655.59;;;-5.66;60.77
30708;BME280;17458;48.958;8.284;2022-12-18T03:47:53;101654.19;;;-5.77;60.98
30708;BME280;17458;48.958;8.284;2022-12-18T03:50:47;101639.59;;;-5.77;60.60
30708;BME280;17458;48.958;8.284;2022-12-18T03:53:51;101641.03;;;-5.79;60.63
30708;BME280;17458;48.958;8.284;2022-12-18T03:56:45;101639.41;;;-6.03;61.52
30708;BME280;17458;48.958;8.284;2022-12-18T03:59:31;101650.41;;;-5.99;61.63
30708;BME280;17458;48.958;8.284;2022-12-18T04:02:17;101640.31;;;-5.78;61.78
30708;BME280;17458;48.958;8.284;2022-12-18T04:05:05;101652.50;;;-5.64;61.89
30708;BME280;17458;48.958;8.284;2022-12-18T04:07:54;101646.72;;;-5.68;62.41
30708;BME280;17458;48.958;8.284;2022-12-18T04:10:39;101651.03;;;-5.49;62.17
30708;BME280;17458;48.958;8.284;2022-12-18T04:13:28;101654.00;;;-5.33;61.81
30708;BME280;17458;48.958;8.284;2022-12-18T04:16:13;101653.22;;;-5.32;61.82
30708;BME280;17458;48.958;8.284;2022-12-18T04:19:00;101653.53;;;-5.24;61.71
30708;BME280;17458;48.958;8.284;2022-12-18T04:21:47;101640.28;;;-5.20;61.90
30708;BME280;17458;48.958;8.284;2022-12-18T04:24:32;101643.13;;;-5.11;62.46
30708;BME280;17458;48.958;8.284;2022-12-18T04:27:32;101645.13;;;-4.96;62.00
30708;BME280;17458;48.958;8.284;2022-12-18T04:30:17;101638.63;;;-4.80;62.43
30708;BME280;17458;48.958;8.284;2022-12-18T04:33:02;101639.72;;;-4.58;62.83
30708;BME280;17458;48.958;8.284;2022-12-18T04:35:48;101634.31;;;-4.40;63.34
30708;BME280;17458;48.958;8.284;2022-12-18T04:38:34;101649.97;;;-4.25;63.03
30708;BME280;17458;48.958;8.284;2022-12-18T04:41:24;101653.72;;;-4.16;63.99
30708;BME280;17458;48.958;8.284;2022-12-18T04:44:11;101657.44;;;-3.87;64.41
30708;BME280;17458;48.958;8.284;2022-12-18T04:46:54;101649.47;;;-3.89;65.40
30708;BME280;17458;48.958;8.284;2022-12-18T04:49:39;101640.66;;;-3.70;65.66
30708;BME280;17458;48.958;8.284;2022-12-18T04:52:23;101642.06;;;-3.52;65.74
30708;BME280;17458;48.958;8.284;2022-12-18T04:55:07;101643.38;;;-3.34;65.79
30708;BME280;17458;48.958;8.284;2022-12-18T04:57:51;101649.56;;;-3.27;66.12
30708;BME280;17458;48.958;8.284;2022-12-18T05:00:35;101652.66;;;-3.36;66.54
30708;BME280;17458;48.958;8.284;2022-12-18T05:03:19;101663.88;;;-3.23;66.17
30708;BME280;17458;48.958;8.284;2022-12-18T05:06:04;101657.69;;;-3.31;66.87
30708;BME280;17458;48.958;8.284;2022-12-18T05:08:48;101661.44;;;-3.22;66.24
30708;BME280;17458;48.958;8.284;2022-12-18T05:11:32;101670.34;;;-3.27;66.56
30708;BME280;17458;48.958;8.284;2022-12-18T05:14:16;101675.88;;;-3.38;67.38
30708;BME280;17458;48.958;8.284;2022-12-18T05:17:00;101671.38;;;-3.46;67.96
30708;BME280;17458;48.958;8.284;2022-12-18T05:19:44;101656.22;;;-3.29;67.46
30708;BME280;17458;48.958;8.284;2022-12-18T05:22:27;101668.03;;;-3.86;68.53
30708;BME280;17458;48.958;8.284;2022-12-18T05:25:11;101653.31;;;-3.66;68.85
30708;BME280;17458;48.958;8.284;2022-12-18T05:27:55;101664.38;;;-3.33;67.14
30708;BME280;17458;48.958;8.284;2022-12-18T05:30:42;101661.66;;;-3.13;66.96
30708;BME280;17458;48.958;8.284;2022-12-18T05:33:30;101664.94;;;-3.28;66.55
30708;BME280;17458;48.958;8.284;2022-12-18T05:36:19;101665.34;;;-3.18;66.98
30708;BME280;17458;48.958;8.284;2022-12-18T05:39:04;101664.91;;;-3.35;67.18
30708;BME280;17458;48.958;8.284;2022-12-18T05:41:48;101662.59;;;-3.12;66.67
30708;BME280;17458;48.958;8.284;2022-12-18T05:44:32;101653.91;;;-2.99;66.10
30708;BME280;17458;48.958;8.284;2022-12-18T05:47:16;101661.81;;;-3.18;66.38
30708;BME280;17458;48.958;8.284;2022-12-18T05:50:00;101662.03;;;-3.10;66.80
30708;BME280;17458;48.958;8.284;2022-12-18T05:52:43;101666.84;;;-3.13;66.89
30708;BME280;17458;48.958;8.284;2022-12-18T05:55:34;101669.59;;;-3.18;67.22
30708;BME280;17458;48.958;8.284;2022-12-18T05:58:18;101671.84;;;-3.14;67.37
30708;BME280;17458;48.958;8.284;2022-12-18T06:03:55;101685.16;;;-4.01;69.85
30708;BME280;17458;48.958;8.284;2022-12-18T06:06:39;101677.22;;;-3.68;69.30
30708;BME280;17458;48.958;8.284;2022-12-18T06:09:23;101682.75;;;-3.31;68.47
30708;BME280;17458;48.958;8.284;2022-12-18T06:12:07;101677.59;;;-3.17;68.00
30708;BME280;17458;48.958;8.284;2022-12-18T06:14:50;101683.59;;;-3.52;68.84
30708;BME280;17458;48.958;8.284;2022-12-18T06:17:35;101693.81;;;-2.98;67.94
30708;BME280;17458;48.958;8.284;2022-12-18T06:20:19;101692.34;;;-2.89;67.59
30708;BME280;17458;48.958;8.284;2022-12-18T06:23:04;101700.03;;;-3.17;68.69
30708;BME280;17458;48.958;8.284;2022-12-18T06:25:48;101708.66;;;-2.90;68.37
30708;BME280;17458;48.958;8.284;2022-12-18T06:28:32;101714.09;;;-2.74;67.20
30708;BME280;17458;48.958;8.284;2022-12-18T06:31:16;101718.38;;;-3.30;68.63
30708;BME280;17458;48.958;8.284;2022-12-18T06:34:02;101717.53;;;-3.09;68.39
30708;BME280;17458;48.958;8.284;2022-12-18T06:36:46;101717.31;;;-3.18;68.57
30708;BME280;17458;48.958;8.284;2022-12-18T06:39:31;101720.38;;;-2.79;67.67
30708;BME280;17458;48.958;8.284;2022-12-18T06:42:14;101726.72;;;-2.77;67.45
30708;BME280;17458;48.958;8.284;2022-12-18T06:44:59;101730.47;;;-2.68;67.45
30708;BME280;17458;48.958;8.284;2022-12-18T06:47:42;101718.41;;;-2.68;67.56
30708;BME280;17458;48.958;8.284;2022-12-18T06:50:27;101725.94;;;-2.91;67.93
30708;BME280;17458;48.958;8.284;2022-12-18T06:53:11;101727.78;;;-2.97;68.46
30708;BME280;17458;48.958;8.284;2022-12-18T06:56:03;101730.72;;;-3.01;68.57
30708;BME280;17458;48.958;8.284;2022-12-18T06:58:51;101724.47;;;-2.89;68.74
30708;BME280;17458;48.958;8.284;2022-12-18T07:01:35;101728.44;;;-2.57;67.31
30708;BME280;17458;48.958;8.284;2022-12-18T07:04:19;101728.41;;;-2.71;67.71
30708;BME280;17458;48.958;8.284;2022-12-18T07:07:03;101729.34;;;-2.70;67.53
30708;BME280;17458;48.958;8.284;2022-12-18T07:09:49;101740.59;;;-2.98;68.37
30708;BME280;17458;48.958;8.284;2022-12-18T07:12:33;101731.59;;;-2.59;67.93
30708;BME280;17458;48.958;8.284;2022-12-18T07:15:17;101725.84;;;-2.42;67.13
30708;BME280;17458;48.958;8.284;2022-12-18T07:18:01;101732.31;;;-2.60;67.40
30708;BME280;17458;48.958;8.284;2022-12-18T07:20:46;101736.22;;;-2.50;67.07
30708;BME280;17458;48.958;8.284;2022-12-18T07:23:31;101735.09;;;-2.52;67.09
30708;BME280;17458;48.958;8.284;2022-12-18T07:26:17;101734.34;;;-2.65;67.49
30708;BME280;17458;48.958;8.284;2022-12-18T07:29:02;101737.69;;;-2.73;67.40
30708;BME280;17458;48.958;8.284;2022-12-18T07:31:46;101734.72;;;-2.62;67.08
30708;BME280;17458;48.958;8.284;2022-12-18T07:34:30;101735.69;;;-2.33;67.03
30708;BME280;17458;48.958;8.284;2022-12-18T07:37:14;101744.25;;;-2.20;66.24
30708;BME280;17458;48.958;8.284;2022-12-18T07:39:58;101745.94;;;-2.27;66.42
30708;BME280;17458;48.958;8.284;2022-12-18T07:42:42;101753.31;;;-2.52;66.93
30708;BME280;17458;48.958;8.284;2022-12-18T07:45:27;101746.28;;;-2.38;67.40
30708;BME280;17458;48.958;8.284;2022-12-18T07:48:11;101751.50;;;-2.24;67.00
30708;BME280;17458;48.958;8.284;2022-12-18T07:50:59;101753.38;;;-2.16;66.56
30708;BME280;17458;48.958;8.284;2022-12-18T07:53:43;101767.06;;;-2.53;67.24
30708;BME280;17458;48.958;8.284;2022-12-18T07:56:27;101763.75;;;-2.37;67.31
30708;BME280;17458;48.958;8.284;2022-12-18T07:59:11;101766.19;;;-2.25;66.80
30708;BME280;17458;48.958;8.284;2022-12-18T08:01:55;101773.22;;;-2.45;67.10
30708;BME280;17458;48.958;8.284;2022-12-18T08:04:38;101776.19;;;-2.49;67.14
30708;BME280;17458;48.958;8.284;2022-12-18T08:07:22;101778.28;;;-2.18;66.65
30708;BME280;17458;48.958;8.284;2022-12-18T08:10:07;101782.00;;;-2.16;66.90
30708;BME280;17458;48.958;8.284;2022-12-18T08:12:53;101774.00;;;-2.03;66.73
30708;BME280;17458;48.958;8.284;2022-12-18T08:15:37;101771.59;;;-1.88;66.43
30708;BME280;17458;48.958;8.284;2022-12-18T08:18:21;101780.31;;;-1.80;65.57
30708;BME280;17458;48.958;8.284;2022-12-18T08:21:10;101780.53;;;-1.86;65.38
30708;BME280;17458;48.958;8.284;2022-12-18T08:23:56;101777.00;;;-1.86;65.05
30708;BME280;17458;48.958;8.284;2022-12-18T08:26:40;101779.59;;;-2.00;65.76
30708;BME280;17458;48.958;8.284;2022-12-18T08:29:24;101764.34;;;-1.90;65.54
30708;BME280;17458;48.958;8.284;2022-12-18T08:32:08;101773.84;;;-1.84;65.41
30708;BME280;17458;48.958;8.284;2022-12-18T08:34:53;101771.94;;;-1.77;65.48
30708;BME280;17458;48.958;8.284;2022-12-18T08:37:37;101763.75;;;-1.95;65.72
30708;BME280;17458;48.958;8.284;2022-12-18T08:40:21;101751.50;;;-1.96;66.28
30708;BME280;17458;48.958;8.284;2022-12-18T08:43:14;101745.00;;;-1.99;67.21
30708;BME280;17458;48.958;8.284;2022-12-18T08:46:19;101739.78;;;-2.06;66.77
30708;BME280;17458;48.958;8.284;2022-12-18T08:49:04;101742.78;;;-2.03;66.82
30708;BME280;17458;48.958;8.284;2022-12-18T08:51:54;101732.34;;;-2.10;67.83
30708;BME280;17458;48.958;8.284;2022-12-18T08:54:41;101734.22;;;-2.31;66.95
30708;BME280;17458;48.958;8.284;2022-12-18T08:57:25;101725.88;;;-2.14;67.05
30708;BME280;17458;48.958;8.284;2022-12-18T09:00:09;101722.84;;;-1.96;66.68
30708;BME280;17458;48.958;8.284;2022-12-18T09:02:54;101727.34;;;-2.16;67.29
30708;BME280;17458;48.958;8.284;2022-12-18T09:05:38;101724.19;;;-2.42;67.88
30708;BME280;17458;48.958;8.284;2022-12-18T09:08:22;101732.53;;;-2.30;67.86
30708;BME280;17458;48.958;8.284;2022-12-18T09:11:12;101726.03;;;-2.20;67.26
30708;BME280;17458;48.958;8.284;2022-12-18T09:13:59;101753.16;;;-1.96;66.43
30708;BME280;17458;48.958;8.284;2022-12-18T09:16:43;101745.19;;;-2.12;67.71
30708;BME280;17458;48.958;8.284;2022-12-18T09:19:27;101745.19;;;-2.40;67.45
30708;BME280;17458;48.958;8.284;2022-12-18T09:22:11;101743.13;;;-2.07;66.84
30708;BME280;17458;48.958;8.284;2022-12-18T09:25:01;101760.41;;;-1.80;66.77
30708;BME280;17458;48.958;8.284;2022-12-18T09:27:47;101752.97;;;-1.69;66.03
30708;BME280;17458;48.958;8.284;2022-12-18T09:30:31;101766.38;;;-1.73;66.88
30708;BME280;17458;48.958;8.284;2022-12-18T09:33:17;101775.47;;;-1.56;65.87
30708;BME280;17458;48.958;8.284;2022-12-18T09:36:04;101789.25;;;-2.13;66.30
30708;BME280;17458;48.958;8.284;2022-12-18T09:38:48;101780.34;;;-2.01;66.34
30708;BME280;17458;48.958;8.284;2022-12-18T09:47:29;101771.75;;;-2.22;67.93
30708;BME280;17458;48.958;8.284;2022-12-18T09:50:32;101786.09;;;-2.25;68.05
30708;BME280;17458;48.958;8.284;2022-12-18T09:53:24;101789.97;;;-2.22;67.72
30708;BME280;17458;48.958;8.284;2022-12-18T09:56:16;101792.97;;;-1.69;67.25
30708;BME280;17458;48.958;8.284;2022-12-18T09:59:02;101813.03;;;-1.54;66.87
30708;BME280;17458;48.958;8.284;2022-12-18T10:01:47;101806.34;;;-1.66;66.69
30708;BME280;17458;48.958;8.284;2022-12-18T10:04:32;101806.16;;;-1.67;65.75
30708;BME280;17458;48.958;8.284;2022-12-18T10:07:27;101808.56;;;-1.48;65.48
30708;BME280;17458;48.958;8.284;2022-12-18T10:10:39;101798.66;;;-1.29;65.71
30708;BME280;17458;48.958;8.284;2022-12-18T10:13:34;101802.44;;;-1.41;65.17
30708;BME280;17458;48.958;8.284;2022-12-18T10:16:52;101807.38;;;-1.21;65.38
30708;BME280;17458;48.958;8.284;2022-12-18T10:20:18;101794.56;;;-1.34;64.95
30708;BME280;17458;48.958;8.284;2022-12-18T10:26:10;101782.19;;;-1.93;66.37
30708;BME280;17458;48.958;8.284;2022-12-18T10:28:57;101775.50;;;-1.70;65.04
30708;BME280;17458;48.958;8.284;2022-12-18T10:31:42;101792.97;;;-2.11;67.75
30708;BME280;17458;48.958;8.284;2022-12-18T10:34:26;101773.44;;;-1.87;66.73
30708;BME280;17458;48.958;8.284;2022-12-18T10:37:16;101774.09;;;-1.31;66.02
30708;BME280;17458;48.958;8.284;2022-12-18T10:40:11;101774.00;;;-1.02;64.88
30708;BME280;17458;48.958;8.284;2022-12-18T10:43:11;101775.88;;;-1.01;64.44
30708;BME280;17458;48.958;8.284;2022-12-18T10:46:00;101781.81;;;-1.02;64.49
30708;BME280;17458;48.958;8.284;2022-12-18T10:51:34;101775.19;;;-0.78;65.50
30708;BME280;17458;48.958;8.284;2022-12-18T10:54:22;101758.03;;;-0.76;65.07
30708;BME280;17458;48.958;8.284;2022-12-18T11:00:24;101763.31;;;-0.53;63.50
30708;BME280;17458;48.958;8.284;2022-12-18T11:03:30;101763.69;;;-0.27;64.88
30708;BME280;17458;48.958;8.284;2022-12-18T11:06:20;101765.69;;;-0.17;62.62
30708;BME280;17458;48.958;8.284;2022-12-18T11:09:20;101774.81;;;-0.44;62.49
30708;BME280;17458;48.958;8.284;2022-12-18T11:12:17;101771.47;;;-0.80;63.44
30708;BME280;17458;48.958;8.284;2022-12-18T11:15:01;101773.75;;;-1.48;65.02
30708;BME280;17458;48.958;8.284;2022-12-18T11:17:48;101775.13;;;-1.00;65.18
30708;BME280;17458;48.958;8.284;2022-12-18T11:20:36;101763.97;;;-1.07;64.18
30708;BME280;17458;48.958;8.284;2022-12-18T11:23:21;101772.72;;;-1.06;65.26
30708;BME280;17458;48.958;8.284;2022-12-18T11:26:08;101761.66;;;-0.96;65.23
30708;BME280;17458;48.958;8.284;2022-12-18T11:29:08;101761.97;;;-0.79;64.43
30708;BME280;17458;48.958;8.284;2022-12-18T11:32:19;101754.47;;;-1.06;64.94
30708;BME280;17458;48.958;8.284;2022-12-18T11:35:15;101757.69;;;-0.79;64.42
30708;BME280;17458;48.958;8.284;2022-12-18T11:38:21;101763.47;;;-0.51;64.41
30708;BME280;17458;48.958;8.284;2022-12-18T11:44:06;101763.94;;;-1.72;64.90
30708;BME280;17458;48.958;8.284;2022-12-18T11:47:01;101754.97;;;-1.46;66.66
30708;BME280;17458;48.958;8.284;2022-12-18T11:49:49;101740.97;;;-1.32;65.85
30708;BME280;17458;48.958;8.284;2022-12-18T11:52:39;101735.19;;;-1.29;65.50
30708;BME280;17458;48.958;8.284;2022-12-18T11:58:47;101735.66;;;-1.55;65.44
30708;BME280;17458;48.958;8.284;2022-12-18T12:01:51;101727.50;;;-1.14;64.88
30708;BME280;17458;48.958;8.284;2022-12-18T12:07:51;101712.06;;;-1.26;65.84
30708;BME280;17458;48.958;8.284;2022-12-18T12:10:52;101705.59;;;-1.30;66.88
30708;BME280;17458;48.958;8.284;2022-12-18T12:16:29;101715.78;;;-0.80;65.33
30708;BME280;17458;48.958;8.284;2022-12-18T12:28:42;101712.00;;;0.00;63.51
30708;BME280;17458;48.958;8.284;2022-12-18T12:31:43;101730.25;;;-0.15;63.09
30708;BME280;17458;48.958;8.284;2022-12-18T12:35:03;101717.25;;;0.16;61.97
30708;BME280;17458;48.958;8.284;2022-12-18T12:40:43;101715.78;;;-0.27;63.52
30708;BME280;17458;48.958;8.284;2022-12-18T12:43:44;101713.94;;;-0.28;62.87
30708;BME280;17458;48.958;8.284;2022-12-18T12:46:35;101719.94;;;0.09;62.34
30708;BME280;17458;48.958;8.284;2022-12-18T12:49:26;101717.09;;;0.15;62.26
30708;BME280;17458;48.958;8.284;2022-12-18T12:52:15;101712.50;;;0.05;62.26
30708;BME280;17458;48.958;8.284;2022-12-18T12:55:02;101704.56;;;-0.49;63.57
30708;BME280;17458;48.958;8.284;2022-12-18T12:58:16;101700.63;;;-0.23;63.51
30708;BME280;17458;48.958;8.284;2022-12-18T13:01:34;101693.38;;;-0.03;63.72
30708;BME280;17458;48.958;8.284;2022-12-18T13:13:10;101670.84;;;-0.70;64.40
30708;BME280;17458;48.958;8.284;2022-12-18T13:16:05;101666.88;;;-0.67;65.15
30708;BME280;17458;48.958;8.284;2022-12-18T13:18:57;101656.75;;;-0.57;64.79
30708;BME280;17458;48.958;8.284;2022-12-18T13:21:52;101647.97;;;-0.80;64.42
30708;BME280;17458;48.958;8.284;2022-12-18T13:24:37;101646.63;;;-0.77;65.42
30708;BME280;17458;48.958;8.284;2022-12-18T13:36:23;101636.31;;;-0.68;65.03
30708;BME280;17458;48.958;8.284;2022-12-18T13:44:49;101635.06;;;-0.10;63.83
30708;BME280;17458;48.958;8.284;2022-12-18T13:47:36;101636.53;;;-0.28;63.86
30708;BME280;17458;48.958;8.284;2022-12-18T13:50:27;101628.94;;;-0.79;66.20
30708;BME280;17458;48.958;8.284;2022-12-18T13:53:24;101624.28;;;-0.29;65.30
30708;BME280;17458;48.958;8.284;2022-12-18T13:56:15;101628.44;;;-0.38;65.09
30708;BME280;17458;48.958;8.284;2022-12-18T13:59:12;101616.69;;;-0.19;64.41
30708;BME280;17458;48.958;8.284;2022-12-18T14:01:58;101617.09;;;0.00;63.91
30708;BME280;17458;48.958;8.284;2022-12-18T14:04:48;101616.00;;;0.14;64.05
30708;BME280;17458;48.958;8.284;2022-12-18T14:07:32;101624.84;;;0.23;63.64
30708;BME280;17458;48.958;8.284;2022-12-18T14:10:17;101625.81;;;-0.38;64.46
30708;BME280;17458;48.958;8.284;2022-12-18T14:13:06;101623.09;;;-0.92;66.85
30708;BME280;17458;48.958;8.284;2022-12-18T14:15:52;101626.50;;;-0.70;66.28
30708;BME280;17458;48.958;8.284;2022-12-18T14:18:53;101621.88;;;-0.80;66.86
30708;BME280;17458;48.958;8.284;2022-12-18T14:21:47;101617.31;;;-0.44;66.23
30708;BME280;17458;48.958;8.284;2022-12-18T14:24:31;101617.94;;;-0.54;66.08
30708;BME280;17458;48.958;8.284;2022-12-18T14:27:23;101626.22;;;-0.88;67.98
30708;BME280;17458;48.958;8.284;2022-12-18T14:35:57;101621.47;;;-0.99;69.37
30708;BME280;17458;48.958;8.284;2022-12-18T14:38:42;101622.78;;;-0.73;68.00
30708;BME280;17458;48.958;8.284;2022-12-18T14:41:27;101620.09;;;-0.88;67.85
30708;BME280;17458;48.958;8.284;2022-12-18T14:44:13;101612.84;;;-0.68;67.95
30708;BME280;17458;48.958;8.284;2022-12-18T14:46:57;101611.22;;;-0.52;67.15
30708;BME280;17458;48.958;8.284;2022-12-18T14:49:41;101621.22;;;-0.93;67.91
30708;BME280;17458;48.958;8.284;2022-12-18T14:52:28;101610.69;;;-1.02;69.25
30708;BME280;17458;48.958;8.284;2022-12-18T14:55:16;101611.59;;;-1.01;68.79
30708;BME280;17458;48.958;8.284;2022-12-18T14:58:01;101614.59;;;-1.35;69.90
30708;BME280;17458;48.958;8.284;2022-12-18T15:00:45;101605.75;;;-0.92;68.51
30708;BME280;17458;48.958;8.284;2022-12-18T15:03:29;101609.69;;;-0.95;68.35
30708;BME280;17458;48.958;8.284;2022-12-18T15:06:21;101610.41;;;-0.66;68.07
30708;BME280;17458;48.958;8.284;2022-12-18T15:09:23;101616.38;;;-0.90;67.61
30708;BME280;17458;48.958;8.284;2022-12-18T15:12:47;101610.97;;;-0.92;68.46
30708;BME280;17458;48.958;8.284;2022-12-18T15:18:35;101611.09;;;-0.83;67.95
30708;BME280;17458;48.958;8.284;2022-12-18T15:21:27;101611.06;;;-0.76;67.91
30708;BME280;17458;48.958;8.284;2022-12-18T15:24:26;101608.44;;;-0.53;67.15
30708;BME280;17458;48.958;8.284;2022-12-18T15:33:24;101608.91;;;-0.87;68.08
30708;BME280;17458;48.958;8.284;2022-12-18T15:36:12;101613.78;;;-0.97;67.34
30708;BME280;17458;48.958;8.284;2022-12-18T15:38:57;101608.94;;;-0.94;67.83
30708;BME280;17458;48.958;8.284;2022-12-18T15:41:42;101600.16;;;-0.88;67.39
30708;BME280;17458;48.958;8.284;2022-12-18T15:44:46;101604.66;;;-0.94;67.42
30708;BME280;17458;48.958;8.284;2022-12-18T15:47:30;101608.34;;;-0.85;67.14
30708;BME280;17458;48.958;8.284;2022-12-18T15:50:14;101609.09;;;-0.86;67.33
30708;BME280;17458;48.958;8.284;2022-12-18T15:52:58;101611.84;;;-0.84;66.92
30708;BME280;17458;48.958;8.284;2022-12-18T15:55:42;101611.16;;;-0.90;67.15
30708;BME280;17458;48.958;8.284;2022-12-18T15:58:45;101617.19;;;-1.28;67.81
30708;BME280;17458;48.958;8.284;2022-12-18T16:01:30;101616.69;;;-1.10;68.02
30708;BME280;17458;48.958;8.284;2022-12-18T16:04:17;101612.25;;;-0.88;67.35
30708;BME280;17458;48.958;8.284;2022-12-18T16:07:01;101613.41;;;-0.93;67.12
30708;BME280;17458;48.958;8.284;2022-12-18T16:09:48;101621.50;;;-1.06;67.58
30708;BME280;17458;48.958;8.284;2022-12-18T16:12:32;101612.63;;;-1.15;67.94
30708;BME280;17458;48.958;8.284;2022-12-18T16:15:16;101612.78;;;-0.84;66.95
30708;BME280;17458;48.958;8.284;2022-12-18T16:18:00;101616.44;;;-0.75;66.83
30708;BME280;17458;48.958;8.284;2022-12-18T16:20:44;101613.03;;;-1.19;68.04